Time,TemperatureF,DewpointF,PressureIn,WindDirection,WindDirectionDegrees,WindSpeedMPH,WindSpeedGustMPH,Humidity,HourlyPrecipIn,Conditions,Clouds,dailyrainin,SoftwareType,DateUTC
2013-02-24 00:00:00,20.0,19.0,-100.00,North,-999,-999.0,-999.0,94,0.01,,,-99.99,,2013-02-24 08:00:00,
2013-02-24 01:00:00,17.0,15.0,-100.00,North,-999,-999.0,-999.0,93,0.00,,,-99.99,,2013-02-24 09:00:00,
2013-02-24 01:52:00,17.0,15.0,-100.00,North,-999,-999.0,-999.0,93,0.00,,,-99.99,,2013-02-24 09:52:00,
2013-02-24 02:00:00,17.0,15.0,-100.00,North,-999,-999.0,-999.0,93,0.01,,,-99.99,,2013-02-24 10:00:00,
2013-02-24 03:00:00,18.0,16.0,-100.00,North,-999,-999.0,-999.0,93,0.00,,,-99.99,,2013-02-24 11:00:00,
2013-02-24 04:00:00,18.0,16.0,-100.00,North,-999,-999.0,-999.0,93,0.00,,,-99.99,,2013-02-24 12:00:00,
2013-02-24 05:00:00,19.0,17.0,-100.00,North,-999,-999.0,-999.0,93,0.00,,,-99.99,,2013-02-24 13:00:00,
2013-02-24 06:00:00,20.0,19.0,-100.00,North,-999,-999.0,-999.0,94,0.01,,,-99.99,,2013-02-24 14:00:00,
2013-02-24 06:54:00,20.0,19.0,-100.00,North,-999,-999.0,-999.0,94,0.01,,,-99.99,,2013-02-24 14:54:00,
2013-02-24 07:00:00,20.0,18.0,-100.00,North,-999,-999.0,-999.0,93,0.02,,,-99.99,,2013-02-24 15:00:00,
2013-02-24 08:00:00,22.0,20.0,-100.00,North,-999,-999.0,-999.0,93,0.00,,,-99.99,,2013-02-24 16:00:00,
2013-02-24 09:00:00,23.0,21.0,-100.00,North,-999,-999.0,-999.0,93,0.01,,,-99.99,,2013-02-24 17:00:00,
2013-02-24 10:00:00,27.0,25.0,-100.00,North,-999,-999.0,-999.0,92,0.02,,,-99.99,,2013-02-24 18:00:00,
2013-02-24 11:00:00,31.0,29.0,-100.00,North,-999,-999.0,-999.0,92,0.00,,,-99.99,,2013-02-24 19:00:00,
2013-02-24 12:00:00,32.0,30.0,-100.00,North,-999,-999.0,-999.0,92,0.01,,,-99.99,,2013-02-24 20:00:00,
2013-02-24 13:00:00,34.0,31.0,-100.00,North,-999,-999.0,-999.0,87,0.00,,,-99.99,,2013-02-24 21:00:00,
2013-02-24 14:00:00,32.0,29.0,-100.00,North,-999,-999.0,-999.0,89,0.00,,,-99.99,,2013-02-24 22:00:00,
2013-02-24 15:00:00,33.0,30.0,-100.00,North,-999,-999.0,-999.0,89,0.00,,,-99.99,,2013-02-24 23:00:00,
2013-02-24 16:00:00,29.0,27.0,-100.00,North,-999,-999.0,-999.0,91,0.00,,,-99.99,,2013-02-25 00:00:00,
2013-02-24 17:00:00,28.0,25.0,-100.00,North,-999,-999.0,-999.0,89,0.00,,,-99.99,,2013-02-25 01:00:00,
2013-02-24 18:00:00,28.0,25.0,-100.00,North,-999,-999.0,-999.0,89,0.00,,,-99.99,,2013-02-25 02:00:00,
2013-02-24 19:00:00,27.0,24.0,-100.00,North,-999,-999.0,-999.0,87,0.00,,,-99.99,,2013-02-25 03:00:00,
2013-02-24 20:00:00,27.0,24.0,-100.00,North,-999,-999.0,-999.0,88,0.00,,,-99.99,,2013-02-25 04:00:00,
2013-02-24 21:00:00,28.0,24.0,-100.00,North,-999,-999.0,-999.0,86,0.00,,,-99.99,,2013-02-25 05:00:00,
2013-02-24 22:00:00,27.0,24.0,-100.00,North,-999,-999.0,-999.0,90,0.00,,,-99.99,,2013-02-25 06:00:00,
2013-02-24 23:00:00,27.0,25.0,-100.00,North,-999,-999.0,-999.0,93,0.00,,,-99.99,,2013-02-25 07:00:00,
2013-02-24 23:52:00,27.0,25.0,-100.00,North,-999,-999.0,-999.0,93,0.00,,,-99.99,,2013-02-25 07:52:00,